sensor_id;sensor_type;location;lat;lon;timestamp;P1;durP1;ratioP1;P2;durP2;ratioP2
44078;SDS011;29744;49.078;12.878;2022-12-18T00:03:44;3.55;;;1.67;;
44078;SDS011;29744;49.078;12.878;2022-12-18T00:08:45;3.05;;;2.00;;
44078;SDS011;29744;49.078;12.878;2022-12-18T00:13:46;3.25;;;1.77;;
44078;SDS011;29744;49.078;12.878;2022-12-18T00:18:47;3.00;;;2.03;;
44078;SDS011;29744;49.078;12.878;2022-12-18T00:23:52;3.10;;;1.80;;
44078;SDS011;29744;49.078;12.878;2022-12-18T00:28:53;3.10;;;1.67;;
44078;SDS011;29744;49.078;12.878;2022-12-18T00:33:55;3.22;;;1.90;;
44078;SDS011;29744;49.078;12.878;2022-12-18T00:38:57;2.80;;;1.60;;
44078;SDS011;29744;49.078;12.878;2022-12-18T00:43:59;2.95;;;1.80;;
44078;SDS011;29744;49.078;12.878;2022-12-18T00:48:59;3.03;;;1.73;;
44078;SDS011;29744;49.078;12.878;2022-12-18T00:53:59;3.42;;;1.90;;
44078;SDS011;29744;49.078;12.878;2022-12-18T00:59:00;2.70;;;1.70;;
44078;SDS011;29744;49.078;12.878;2022-12-18T01:04:01;3.10;;;1.73;;
44078;SDS011;29744;49.078;12.878;2022-12-18T01:09:02;2.65;;;1.75;;
44078;SDS011;29744;49.078;12.878;2022-12-18T01:14:03;2.53;;;1.58;;
44078;SDS011;29744;49.078;12.878;2022-12-18T01:19:04;3.38;;;1.92;;
44078;SDS011;29744;49.078;12.878;2022-12-18T01:24:04;2.55;;;1.50;;
44078;SDS011;29744;49.078;12.878;2022-12-18T01:29:05;2.83;;;1.67;;
44078;SDS011;29744;49.078;12.878;2022-12-18T01:34:05;2.83;;;1.75;;
44078;SDS011;29744;49.078;12.878;2022-12-18T01:39:07;2.60;;;1.65;;
44078;SDS011;29744;49.078;12.878;2022-12-18T01:49:48;3.13;;;1.70;;
44078;SDS011;29744;49.078;12.878;2022-12-18T01:54:48;2.55;;;1.30;;
44078;SDS011;29744;49.078;12.878;2022-12-18T01:59:52;2.92;;;1.50;;
44078;SDS011;29744;49.078;12.878;2022-12-18T02:04:53;2.88;;;1.60;;
44078;SDS011;29744;49.078;12.878;2022-12-18T02:15:01;2.72;;;1.52;;
44078;SDS011;29744;49.078;12.878;2022-12-18T02:20:23;3.28;;;1.52;;
44078;SDS011;29744;49.078;12.878;2022-12-18T02:30:37;3.17;;;1.63;;
44078;SDS011;29744;49.078;12.878;2022-12-18T02:35:39;3.45;;;1.90;;
44078;SDS011;29744;49.078;12.878;2022-12-18T02:40:41;2.45;;;1.35;;
44078;SDS011;29744;49.078;12.878;2022-12-18T02:45:52;2.35;;;1.50;;
44078;SDS011;29744;49.078;12.878;2022-12-18T02:51:02;2.85;;;1.45;;
44078;SDS011;29744;49.078;12.878;2022-12-18T02:56:16;2.28;;;1.27;;
44078;SDS011;29744;49.078;12.878;2022-12-18T03:01:24;3.35;;;1.60;;
44078;SDS011;29744;49.078;12.878;2022-12-18T03:06:32;2.50;;;1.30;;
44078;SDS011;29744;49.078;12.878;2022-12-18T03:11:37;2.97;;;1.67;;
44078;SDS011;29744;49.078;12.878;2022-12-18T03:17:02;2.40;;;1.40;;
44078;SDS011;29744;49.078;12.878;2022-12-18T03:22:03;2.83;;;1.50;;
44078;SDS011;29744;49.078;12.878;2022-12-18T03:27:09;2.58;;;1.48;;
44078;SDS011;29744;49.078;12.878;2022-12-18T03:32:19;2.35;;;1.30;;
44078;SDS011;29744;49.078;12.878;2022-12-18T03:37:25;2.15;;;1.20;;
44078;SDS011;29744;49.078;12.878;2022-12-18T03:42:32;2.22;;;1.42;;
44078;SDS011;29744;49.078;12.878;2022-12-18T03:58:41;1.88;;;1.30;;
44078;SDS011;29744;49.078;12.878;2022-12-18T04:03:44;2.40;;;1.38;;
44078;SDS011;29744;49.078;12.878;2022-12-18T04:08:49;2.70;;;1.60;;
44078;SDS011;29744;49.078;12.878;2022-12-18T04:13:50;2.63;;;1.40;;
44078;SDS011;29744;49.078;12.878;2022-12-18T04:18:50;2.28;;;1.20;;
44078;SDS011;29744;49.078;12.878;2022-12-18T04:23:50;2.63;;;1.52;;
44078;SDS011;29744;49.078;12.878;2022-12-18T04:28:51;1.95;;;1.10;;
44078;SDS011;29744;49.078;12.878;2022-12-18T04:33:51;2.25;;;1.30;;
44078;SDS011;29744;49.078;12.878;2022-12-18T04:38:51;2.58;;;1.48;;
44078;SDS011;29744;49.078;12.878;2022-12-18T04:43:51;2.60;;;1.50;;
44078;SDS011;29744;49.078;12.878;2022-12-18T04:48:52;2.45;;;1.40;;
44078;SDS011;29744;49.078;12.878;2022-12-18T04:53:53;2.15;;;1.27;;
44078;SDS011;29744;49.078;12.878;2022-12-18T04:58:53;2.38;;;1.30;;
44078;SDS011;29744;49.078;12.878;2022-12-18T05:03:54;1.88;;;1.17;;
44078;SDS011;29744;49.078;12.878;2022-12-18T05:08:54;2.60;;;1.45;;
44078;SDS011;29744;49.078;12.878;2022-12-18T05:13:54;1.55;;;1.00;;
44078;SDS011;29744;49.078;12.878;2022-12-18T05:18:55;2.60;;;1.35;;
44078;SDS011;29744;49.078;12.878;2022-12-18T05:23:55;1.70;;;1.17;;
44078;SDS011;29744;49.078;12.878;2022-12-18T05:28:56;1.80;;;1.10;;
44078;SDS011;29744;49.078;12.878;2022-12-18T05:33:56;1.90;;;1.10;;
44078;SDS011;29744;49.078;12.878;2022-12-18T05:38:57;2.00;;;1.02;;
44078;SDS011;29744;49.078;12.878;2022-12-18T05:43:58;2.13;;;1.05;;
44078;SDS011;29744;49.078;12.878;2022-12-18T05:48:59;2.20;;;1.10;;
44078;SDS011;29744;49.078;12.878;2022-12-18T05:54:01;1.77;;;0.90;;
44078;SDS011;29744;49.078;12.878;2022-12-18T05:59:01;2.10;;;1.15;;
44078;SDS011;29744;49.078;12.878;2022-12-18T06:04:01;2.20;;;1.10;;
44078;SDS011;29744;49.078;12.878;2022-12-18T06:09:02;2.42;;;1.35;;
44078;SDS011;29744;49.078;12.878;2022-12-18T06:14:08;1.90;;;1.00;;
44078;SDS011;29744;49.078;12.878;2022-12-18T06:19:12;1.30;;;0.82;;
44078;SDS011;29744;49.078;12.878;2022-12-18T06:24:15;1.33;;;0.93;;
44078;SDS011;29744;49.078;12.878;2022-12-18T06:29:15;2.05;;;1.08;;
44078;SDS011;29744;49.078;12.878;2022-12-18T06:34:15;2.65;;;1.15;;
44078;SDS011;29744;49.078;12.878;2022-12-18T06:39:16;1.48;;;0.98;;
44078;SDS011;29744;49.078;12.878;2022-12-18T06:44:16;1.25;;;0.88;;
44078;SDS011;29744;49.078;12.878;2022-12-18T06:49:16;1.35;;;0.80;;
44078;SDS011;29744;49.078;12.878;2022-12-18T06:54:17;1.15;;;0.80;;
44078;SDS011;29744;49.078;12.878;2022-12-18T06:59:17;1.83;;;1.02;;
44078;SDS011;29744;49.078;12.878;2022-12-18T07:04:17;1.73;;;1.02;;
44078;SDS011;29744;49.078;12.878;2022-12-18T07:09:18;2.65;;;1.33;;
44078;SDS011;29744;49.078;12.878;2022-12-18T07:14:18;1.83;;;1.00;;
44078;SDS011;29744;49.078;12.878;2022-12-18T07:19:18;2.03;;;1.10;;
44078;SDS011;29744;49.078;12.878;2022-12-18T07:24:19;2.20;;;1.10;;
44078;SDS011;29744;49.078;12.878;2022-12-18T07:29:19;2.15;;;1.10;;
44078;SDS011;29744;49.078;12.878;2022-12-18T07:34:19;2.22;;;1.20;;
44078;SDS011;29744;49.078;12.878;2022-12-18T07:39:20;2.05;;;1.20;;
44078;SDS011;29744;49.078;12.878;2022-12-18T07:44:20;2.28;;;1.20;;
44078;SDS011;29744;49.078;12.878;2022-12-18T07:49:20;1.95;;;0.93;;
44078;SDS011;29744;49.078;12.878;2022-12-18T07:54:21;1.80;;;1.13;;
44078;SDS011;29744;49.078;12.878;2022-12-18T07:59:24;1.35;;;0.90;;
44078;SDS011;29744;49.078;12.878;2022-12-18T08:04:25;2.13;;;1.08;;
44078;SDS011;29744;49.078;12.878;2022-12-18T08:09:25;2.40;;;1.20;;
44078;SDS011;29744;49.078;12.878;2022-12-18T08:14:25;1.77;;;1.08;;
44078;SDS011;29744;49.078;12.878;2022-12-18T08:19:26;1.88;;;1.00;;
44078;SDS011;29744;49.078;12.878;2022-12-18T08:24:26;2.08;;;1.13;;
44078;SDS011;29744;49.078;12.878;2022-12-18T08:29:26;1.88;;;1.17;;
44078;SDS011;29744;49.078;12.878;2022-12-18T08:34:27;1.95;;;1.10;;
44078;SDS011;29744;49.078;12.878;2022-12-18T08:39:27;2.33;;;1.20;;
44078;SDS011;29744;49.078;12.878;2022-12-18T08:44:27;2.50;;;1.27;;
44078;SDS011;29744;49.078;12.878;2022-12-18T08:49:37;2.30;;;1.20;;
44078;SDS011;29744;49.078;12.878;2022-12-18T08:54:37;2.28;;;1.17;;
44078;SDS011;29744;49.078;12.878;2022-12-18T08:59:38;2.25;;;1.30;;
44078;SDS011;29744;49.078;12.878;2022-12-18T09:04:38;2.05;;;1.20;;
44078;SDS011;29744;49.078;12.878;2022-12-18T09:09:39;1.95;;;1.05;;
44078;SDS011;29744;49.078;12.878;2022-12-18T09:14:40;12.45;;;8.07;;
44078;SDS011;29744;49.078;12.878;2022-12-18T09:19:40;18.98;;;13.82;;
44078;SDS011;29744;49.078;12.878;2022-12-18T09:24:40;24.27;;;17.15;;
44078;SDS011;29744;49.078;12.878;2022-12-18T09:29:41;21.88;;;15.96;;
44078;SDS011;29744;49.078;12.878;2022-12-18T09:34:41;22.48;;;16.02;;
44078;SDS011;29744;49.078;12.878;2022-12-18T09:39:41;23.48;;;15.73;;
44078;SDS011;29744;49.078;12.878;2022-12-18T09:44:43;21.80;;;15.20;;
44078;SDS011;29744;49.078;12.878;2022-12-18T09:49:50;20.70;;;13.90;;
44078;SDS011;29744;49.078;12.878;2022-12-18T09:54:59;18.83;;;14.00;;
44078;SDS011;29744;49.078;12.878;2022-12-18T10:00:06;18.40;;;13.07;;
44078;SDS011;29744;49.078;12.878;2022-12-18T10:05:34;17.35;;;12.82;;
44078;SDS011;29744;49.078;12.878;2022-12-18T10:16:04;16.77;;;12.45;;
44078;SDS011;29744;49.078;12.878;2022-12-18T10:21:13;17.50;;;11.95;;
44078;SDS011;29744;49.078;12.878;2022-12-18T10:26:19;17.13;;;11.85;;
44078;SDS011;29744;49.078;12.878;2022-12-18T10:31:21;18.38;;;11.88;;
44078;SDS011;29744;49.078;12.878;2022-12-18T10:36:23;17.17;;;12.15;;
44078;SDS011;29744;49.078;12.878;2022-12-18T10:41:25;15.57;;;10.93;;
44078;SDS011;29744;49.078;12.878;2022-12-18T10:46:26;15.85;;;10.80;;
44078;SDS011;29744;49.078;12.878;2022-12-18T10:51:28;16.95;;;10.65;;
44078;SDS011;29744;49.078;12.878;2022-12-18T10:56:31;15.45;;;10.38;;
44078;SDS011;29744;49.078;12.878;2022-12-18T11:12:02;13.70;;;9.43;;
44078;SDS011;29744;49.078;12.878;2022-12-18T11:22:31;13.40;;;9.38;;
44078;SDS011;29744;49.078;12.878;2022-12-18T11:27:34;12.38;;;9.23;;
44078;SDS011;29744;49.078;12.878;2022-12-18T11:37:38;13.40;;;8.85;;
44078;SDS011;29744;49.078;12.878;2022-12-18T11:53:01;12.02;;;8.38;;
44078;SDS011;29744;49.078;12.878;2022-12-18T12:08:26;10.10;;;7.53;;
44078;SDS011;29744;49.078;12.878;2022-12-18T12:13:44;11.10;;;7.57;;
44078;SDS011;29744;49.078;12.878;2022-12-18T12:30:18;10.63;;;7.38;;
44078;SDS011;29744;49.078;12.878;2022-12-18T12:40:28;9.25;;;6.85;;
44078;SDS011;29744;49.078;12.878;2022-12-18T12:45:34;10.45;;;7.25;;
44078;SDS011;29744;49.078;12.878;2022-12-18T12:50:40;9.85;;;7.20;;
44078;SDS011;29744;49.078;12.878;2022-12-18T12:55:41;9.00;;;6.78;;
44078;SDS011;29744;49.078;12.878;2022-12-18T13:01:28;9.13;;;6.65;;
44078;SDS011;29744;49.078;12.878;2022-12-18T13:06:19;9.23;;;6.57;;
44078;SDS011;29744;49.078;12.878;2022-12-18T13:17:29;8.25;;;6.43;;
44078;SDS011;29744;49.078;12.878;2022-12-18T13:22:38;9.93;;;7.18;;
44078;SDS011;29744;49.078;12.878;2022-12-18T13:27:46;9.30;;;6.35;;
44078;SDS011;29744;49.078;12.878;2022-12-18T13:38:23;9.07;;;6.10;;
44078;SDS011;29744;49.078;12.878;2022-12-18T13:43:40;9.15;;;6.50;;
44078;SDS011;29744;49.078;12.878;2022-12-18T13:48:43;7.60;;;5.53;;
44078;SDS011;29744;49.078;12.878;2022-12-18T13:54:05;8.02;;;5.82;;
44078;SDS011;29744;49.078;12.878;2022-12-18T13:59:19;7.82;;;5.78;;
44078;SDS011;29744;49.078;12.878;2022-12-18T14:04:33;8.35;;;5.22;;
44078;SDS011;29744;49.078;12.878;2022-12-18T14:09:35;7.93;;;5.90;;
44078;SDS011;29744;49.078;12.878;2022-12-18T14:14:43;8.02;;;5.53;;
44078;SDS011;29744;49.078;12.878;2022-12-18T14:19:50;7.88;;;6.00;;
44078;SDS011;29744;49.078;12.878;2022-12-18T14:25:04;8.18;;;5.85;;
44078;SDS011;29744;49.078;12.878;2022-12-18T14:30:26;8.07;;;5.57;;
44078;SDS011;29744;49.078;12.878;2022-12-18T14:35:27;7.82;;;5.38;;
44078;SDS011;29744;49.078;12.878;2022-12-18T14:40:28;7.68;;;5.25;;
44078;SDS011;29744;49.078;12.878;2022-12-18T14:45:38;7.22;;;5.30;;
44078;SDS011;29744;49.078;12.878;2022-12-18T14:50:41;8.70;;;5.47;;
44078;SDS011;29744;49.078;12.878;2022-12-18T14:55:44;8.43;;;5.70;;
44078;SDS011;29744;49.078;12.878;2022-12-18T15:00:49;7.40;;;5.32;;
44078;SDS011;29744;49.078;12.878;2022-12-18T15:05:50;7.70;;;5.28;;
44078;SDS011;29744;49.078;12.878;2022-12-18T15:10:50;7.97;;;5.70;;
44078;SDS011;29744;49.078;12.878;2022-12-18T15:15:50;6.55;;;4.63;;
44078;SDS011;29744;49.078;12.878;2022-12-18T15:20:53;7.72;;;5.65;;
44078;SDS011;29744;49.078;12.878;2022-12-18T15:26:05;6.95;;;4.63;;
44078;SDS011;29744;49.078;12.878;2022-12-18T15:36:09;7.53;;;4.75;;
44078;SDS011;29744;49.078;12.878;2022-12-18T15:41:12;6.85;;;4.55;;
44078;SDS011;29744;49.078;12.878;2022-12-18T15:46:17;6.28;;;4.60;;
44078;SDS011;29744;49.078;12.878;2022-12-18T15:51:20;6.43;;;4.75;;
44078;SDS011;29744;49.078;12.878;2022-12-18T15:56:24;7.32;;;5.05;;
44078;SDS011;29744;49.078;12.878;2022-12-18T16:01:43;6.85;;;4.53;;
44078;SDS011;29744;49.078;12.878;2022-12-18T16:06:46;6.28;;;4.40;;
44078;SDS011;29744;49.078;12.878;2022-12-18T16:11:46;6.10;;;4.25;;
44078;SDS011;29744;49.078;12.878;2022-12-18T16:16:48;6.38;;;4.20;;
44078;SDS011;29744;49.078;12.878;2022-12-18T16:21:51;5.88;;;4.28;;
44078;SDS011;29744;49.078;12.878;2022-12-18T16:26:53;6.18;;;4.22;;
44078;SDS011;29744;49.078;12.878;2022-12-18T16:31:54;5.45;;;3.97;;
44078;SDS011;29744;49.078;12.878;2022-12-18T16:36:59;6.47;;;4.10;;
44078;SDS011;29744;49.078;12.878;2022-12-18T16:42:06;5.65;;;3.80;;
44078;SDS011;29744;49.078;12.878;2022-12-18T16:47:16;5.28;;;3.80;;
44078;SDS011;29744;49.078;12.878;2022-12-18T16:52:18;5.80;;;4.13;;
44078;SDS011;29744;49.078;12.878;2022-12-18T16:57:19;5.68;;;3.72;;
44078;SDS011;29744;49.078;12.878;2022-12-18T17:02:21;5.75;;;3.95;;
44078;SDS011;29744;49.078;12.878;2022-12-18T17:07:24;6.03;;;3.88;;
44078;SDS011;29744;49.078;12.878;2022-12-18T17:12:25;5.28;;;3.58;;
44078;SDS011;29744;49.078;12.878;2022-12-18T17:17:26;5.70;;;3.63;;
44078;SDS011;29744;49.078;12.878;2022-12-18T17:22:26;5.38;;;3.53;;
44078;SDS011;29744;49.078;12.878;2022-12-18T17:27:27;5.53;;;3.75;;
44078;SDS011;29744;49.078;12.878;2022-12-18T17:32:27;5.68;;;3.55;;
44078;SDS011;29744;49.078;12.878;2022-12-18T17:37:27;5.32;;;3.62;;
44078;SDS011;29744;49.078;12.878;2022-12-18T17:42:27;5.25;;;3.42;;
44078;SDS011;29744;49.078;12.878;2022-12-18T17:47:28;5.22;;;3.28;;
44078;SDS011;29744;49.078;12.878;2022-12-18T17:52:28;4.40;;;2.97;;
44078;SDS011;29744;49.078;12.878;2022-12-18T17:57:28;5.68;;;3.42;;
44078;SDS011;29744;49.078;12.878;2022-12-18T18:02:29;4.57;;;3.20;;
44078;SDS011;29744;49.078;12.878;2022-12-18T18:07:29;4.50;;;3.08;;
44078;SDS011;29744;49.078;12.878;2022-12-18T18:12:29;4.43;;;3.05;;
44078;SDS011;29744;49.078;12.878;2022-12-18T18:17:48;5.70;;;3.35;;
44078;SDS011;29744;49.078;12.878;2022-12-18T18:22:49;4.90;;;3.28;;
44078;SDS011;29744;49.078;12.878;2022-12-18T18:27:49;4.63;;;3.15;;
44078;SDS011;29744;49.078;12.878;2022-12-18T18:32:49;4.20;;;2.90;;
44078;SDS011;29744;49.078;12.878;2022-12-18T18:37:49;4.68;;;3.10;;
44078;SDS011;29744;49.078;12.878;2022-12-18T18:42:50;4.95;;;3.22;;
44078;SDS011;29744;49.078;12.878;2022-12-18T18:47:51;4.60;;;2.95;;
44078;SDS011;29744;49.078;12.878;2022-12-18T18:52:51;4.20;;;2.80;;
44078;SDS011;29744;49.078;12.878;2022-12-18T18:57:51;5.03;;;3.28;;
44078;SDS011;29744;49.078;12.878;2022-12-18T19:02:52;4.85;;;2.90;;
44078;SDS011;29744;49.078;12.878;2022-12-18T19:07:52;4.03;;;2.75;;
44078;SDS011;29744;49.078;12.878;2022-12-18T19:12:52;4.65;;;2.92;;
44078;SDS011;29744;49.078;12.878;2022-12-18T19:18:11;4.25;;;2.67;;
44078;SDS011;29744;49.078;12.878;2022-12-18T19:23:11;4.53;;;3.00;;
44078;SDS011;29744;49.078;12.878;2022-12-18T19:28:12;3.97;;;2.72;;
44078;SDS011;29744;49.078;12.878;2022-12-18T19:33:12;3.78;;;2.50;;
44078;SDS011;29744;49.078;12.878;2022-12-18T19:38:12;4.43;;;2.88;;
44078;SDS011;29744;49.078;12.878;2022-12-18T19:43:13;3.67;;;2.53;;
44078;SDS011;29744;49.078;12.878;2022-12-18T19:48:14;4.45;;;3.00;;
44078;SDS011;29744;49.078;12.878;2022-12-18T19:53:14;3.90;;;2.60;;
44078;SDS011;29744;49.078;12.878;2022-12-18T19:58:14;4.45;;;2.78;;
44078;SDS011;29744;49.078;12.878;2022-12-18T20:03:15;4.00;;;2.70;;
44078;SDS011;29744;49.078;12.878;2022-12-18T20:08:15;4.05;;;2.67;;
44078;SDS011;29744;49.078;12.878;2022-12-18T20:13:15;4.00;;;2.45;;
44078;SDS011;29744;49.078;12.878;2022-12-18T20:18:16;4.68;;;2.67;;
44078;SDS011;29744;49.078;12.878;2022-12-18T20:23:16;4.15;;;2.85;;
44078;SDS011;29744;49.078;12.878;2022-12-18T20:28:20;4.93;;;2.60;;
44078;SDS011;29744;49.078;12.878;2022-12-18T20:33:21;4.40;;;2.80;;
44078;SDS011;29744;49.078;12.878;2022-12-18T20:38:22;3.92;;;2.33;;
44078;SDS011;29744;49.078;12.878;2022-12-18T20:43:22;4.60;;;2.67;;
44078;SDS011;29744;49.078;12.878;2022-12-18T20:48:22;4.20;;;2.65;;
44078;SDS011;29744;49.078;12.878;2022-12-18T20:53:22;3.97;;;2.63;;
44078;SDS011;29744;49.078;12.878;2022-12-18T20:58:23;4.53;;;2.67;;
44078;SDS011;29744;49.078;12.878;2022-12-18T21:03:24;3.65;;;2.40;;
44078;SDS011;29744;49.078;12.878;2022-12-18T21:08:24;4.45;;;2.95;;
44078;SDS011;29744;49.078;12.878;2022-12-18T21:13:24;4.07;;;2.40;;
44078;SDS011;29744;49.078;12.878;2022-12-18T21:18:24;4.13;;;2.67;;
44078;SDS011;29744;49.078;12.878;2022-12-18T21:23:25;4.15;;;2.45;;
44078;SDS011;29744;49.078;12.878;2022-12-18T21:28:25;4.00;;;2.75;;
44078;SDS011;29744;49.078;12.878;2022-12-18T21:33:25;4.03;;;2.33;;
44078;SDS011;29744;49.078;12.878;2022-12-18T21:38:26;4.00;;;2.50;;
44078;SDS011;29744;49.078;12.878;2022-12-18T21:43:27;4.30;;;2.65;;
44078;SDS011;29744;49.078;12.878;2022-12-18T21:48:45;4.68;;;2.60;;
44078;SDS011;29744;49.078;12.878;2022-12-18T21:53:46;3.88;;;2.63;;
44078;SDS011;29744;49.078;12.878;2022-12-18T21:58:47;4.82;;;2.70;;
44078;SDS011;29744;49.078;12.878;2022-12-18T22:03:47;4.85;;;2.70;;
44078;SDS011;29744;49.078;12.878;2022-12-18T22:08:48;4.90;;;2.83;;
44078;SDS011;29744;49.078;12.878;2022-12-18T22:13:48;4.95;;;2.78;;
44078;SDS011;29744;49.078;12.878;2022-12-18T22:18:49;4.30;;;2.75;;
44078;SDS011;29744;49.078;12.878;2022-12-18T22:23:52;4.38;;;2.60;;
44078;SDS011;29744;49.078;12.878;2022-12-18T22:28:54;4.22;;;2.42;;
44078;SDS011;29744;49.078;12.878;2022-12-18T22:34:13;4.25;;;2.60;;
44078;SDS011;29744;49.078;12.878;2022-12-18T22:39:16;5.00;;;2.95;;
44078;SDS011;29744;49.078;12.878;2022-12-18T22:44:24;4.25;;;2.70;;
44078;SDS011;29744;49.078;12.878;2022-12-18T22:49:25;4.30;;;2.60;;
44078;SDS011;29744;49.078;12.878;2022-12-18T22:54:25;4.00;;;2.40;;
44078;SDS011;29744;49.078;12.878;2022-12-18T22:59:26;4.78;;;2.80;;
44078;SDS011;29744;49.078;12.878;2022-12-18T23:04:26;3.83;;;2.38;;
44078;SDS011;29744;49.078;12.878;2022-12-18T23:09:27;4.07;;;2.42;;
44078;SDS011;29744;49.078;12.878;2022-12-18T23:14:29;4.53;;;2.97;;
44078;SDS011;29744;49.078;12.878;2022-12-18T23:19:30;4.00;;;2.55;;
44078;SDS011;29744;49.078;12.878;2022-12-18T23:24:31;4.47;;;2.72;;
44078;SDS011;29744;49.078;12.878;2022-12-18T23:29:31;4.40;;;2.60;;
44078;SDS011;29744;49.078;12.878;2022-12-18T23:34:31;4.35;;;2.65;;
44078;SDS011;29744;49.078;12.878;2022-12-18T23:39:31;4.03;;;2.65;;
44078;SDS011;29744;49.078;12.878;2022-12-18T23:44:32;3.90;;;2.33;;
44078;SDS011;29744;49.078;12.878;2022-12-18T23:49:32;4.20;;;2.55;;
44078;SDS011;29744;49.078;12.878;2022-12-18T23:54:33;4.32;;;2.58;;
44078;SDS011;29744;49.078;12.878;2022-12-18T23:59:33;4.13;;;2.50;;
